Terminal Aerodrome Forecast
Issued by NWS

Home | Current Version | Previous Version | Graphics & Text | Print | Product List | Glossary On
Versions: 1 2 3 4 5 6 7 8 9 10 11 12 13 14 15 16 17 18 19 20 21 22 23 24 25 26 27 28 29 30 31
000
FTUS43 KTOP 232334
TAFFOE
TAF
KFOE 232334Z 2400/2424 17016G25KT P6SM SCT035 BKN050
     FM240200 16013KT P6SM SCT120
     FM240500 18011KT P6SM VCTS BKN100CB WS020/22050KT
     FM240800 19010KT P6SM SCT150=

USA.gov is the U.S. government's official web portal to all federal, state and local government web resources and services.